Latest Weather Observations for Warruwi

IDD60801

Issued at 4:05 pm CST Tuesday 29 July 2014 (issued every 30 minutes, with the page automatically refreshed every 10 minutes)

About weather observations | Map of weather stations | Latest weather observations for NT | Other Formats
Station Details ID: 014401 Name: WARRUWI AIRPORT Lat: -11.65 Lon: 133.38 Height: 19.2 m
Data from the previous 72 hours. | See also: Recent months at Warruwi
Date/Time
CST
Temp
°C
App
Temp
°C
Dew
Point
Rel
Hum
%
Delta-T
°C
Wind Press
QNH
hPa
Press
MSL
hPa
Rain
since 9 am
mm
Dir
 
Spd
km/h
Gust
km/h
Spd
kts
Gust
kts
29/04:00pm 26.9 27.5 21.0 70 3.9 ENE 19 32 10 17 1013.3 - 0.0
29/03:30pm 27.6 27.9 20.4 65 4.7 E 19 32 10 17 1013.4 1013.3 0.0
29/03:00pm 26.9 26.0 19.8 65 4.6 E 24 33 13 18 1013.7 1013.6 0.0
29/02:30pm 27.8 28.0 20.6 65 4.7 E 20 30 11 16 1014.1 1014.0 0.0
29/02:00pm 27.4 25.9 20.2 65 4.7 E 28 37 15 20 1014.6 - 0.0
29/01:30pm 28.0 28.2 20.6 64 4.9 E 20 35 11 19 1015.0 1014.9 0.0
29/01:00pm 27.7 27.0 20.3 64 4.9 E 24 35 13 19 1015.3 - 0.0
29/12:30pm 27.6 26.3 19.9 63 5.0 E 26 33 14 18 1015.7 1015.6 0.0
29/12:00pm 27.4 27.5 20.0 64 4.8 E 19 24 10 13 1016.2 1016.1 0.0
29/11:30am 27.7 27.6 19.5 61 5.3 E 19 26 10 14 1016.4 1016.3 0.0
29/11:00am 26.9 26.6 19.5 64 4.8 E 20 28 11 15 1016.6 - 0.0
29/10:30am 26.4 25.8 18.8 63 4.9 ESE 20 28 11 15 1016.8 1016.7 0.0
29/10:00am 26.1 25.8 19.5 67 4.3 ESE 20 28 11 15 1016.9 - 0.0
29/09:30am 24.8 24.1 19.4 72 3.5 ESE 22 30 12 16 1017.0 1016.9 0.0
29/09:00am 24.4 24.1 19.5 74 3.1 ESE 20 32 11 17 1017.2 1017.1 0.0
29/08:30am 23.6 22.8 19.3 77 2.7 ESE 22 30 12 16 1017.0 1016.9 0.0
29/08:00am 23.0 22.8 19.4 80 2.3 ESE 19 24 10 13 1016.8 - 0.0
29/07:30am 22.3 22.8 19.3 83 1.9 ESE 15 22 8 12 1016.5 1016.4 0.0
29/07:00am 22.0 21.6 18.8 82 2.0 ESE 19 28 10 15 1016.3 - 0.0
29/06:30am 22.1 21.3 18.5 80 2.3 ESE 20 28 11 15 1016.2 1016.1 0.0
29/06:00am 22.3 21.2 18.7 80 2.3 ESE 22 32 12 17 1015.8 1015.7 0.0
29/05:30am 22.4 21.9 18.6 79 2.4 ESE 19 30 10 16 1015.5 1015.4 0.0
29/05:00am 22.8 21.9 17.7 73 3.2 ESE 19 30 10 16 1015.4 - 0.0
29/04:30am 23.0 22.1 17.7 72 3.3 ESE 19 28 10 15 1015.2 1015.1 0.0
29/04:00am 23.2 22.4 17.2 69 3.7 ESE 17 22 9 12 1015.2 - 0.0
29/03:30am 23.6 22.2 17.1 67 4.0 ESE 20 30 11 16 1015.0 1014.9 0.0
29/03:00am 23.9 22.2 16.2 62 4.7 ESE 20 28 11 15 1015.1 1015.0 0.0
29/02:30am 24.2 22.7 16.7 63 4.6 ESE 20 32 11 17 1015.2 1015.1 0.0
29/02:00am 24.3 23.3 17.5 66 4.2 ESE 19 24 10 13 1015.4 - 0.0
29/01:30am 24.7 22.9 17.9 66 4.3 ESE 24 33 13 18 1015.3 1015.2 0.0
29/01:00am 24.8 24.5 19.6 73 3.3 ESE 20 30 11 16 1015.4 - 0.0
29/12:30am 24.8 25.1 20.7 78 2.7 E 20 26 11 14 1015.3 1015.2 0.0
29/12:00am 24.8 25.9 21.3 81 2.3 E 17 22 9 12 1015.4 1015.3 0.0
 
Date/Time
CST
Temp
°C
App
Temp
°C
Dew
Point
Rel
Hum
%
Delta-T
°C
Wind Press
QNH
hPa
Press
MSL
hPa
Rain
since 9 am
mm
Dir
 
Spd
km/h
Gust
km/h
Spd
kts
Gust
kts
28/11:30pm 24.8 26.0 22.1 85 1.8 E 19 24 10 13 1015.6 1015.5 0.0
28/11:00pm 24.9 25.9 21.8 83 2.1 E 19 24 10 13 1015.5 - 0.0
28/10:30pm 25.0 25.9 21.5 81 2.3 E 19 26 10 14 1015.4 1015.3 0.0
28/10:00pm 25.1 26.4 21.6 81 2.3 E 17 24 9 13 1015.6 - 0.0
28/09:30pm 25.1 26.4 21.6 81 2.3 E 17 20 9 11 1015.6 1015.5 0.0
28/09:00pm 25.1 26.4 21.6 81 2.3 E 17 22 9 12 1015.5 1015.4 0.0
28/08:30pm 25.1 27.1 22.2 84 1.9 E 15 20 8 11 1015.3 1015.2 0.0
28/08:00pm 25.1 27.8 22.2 84 1.9 E 11 17 6 9 1015.0 - 0.0
28/07:30pm 25.1 27.5 21.6 81 2.3 E 11 20 6 11 1014.6 1014.5 0.0
28/07:00pm 25.3 27.7 21.6 80 2.5 E 11 22 6 12 1014.2 - 0.0
28/06:30pm 25.5 27.4 21.4 78 2.7 E 13 20 7 11 1013.8 1013.7 0.0
28/06:00pm 26.0 28.2 21.2 75 3.2 E 11 19 6 10 1013.5 1013.4 0.0
28/05:30pm 26.2 27.1 20.8 72 3.6 E 17 24 9 13 1013.3 1013.2 0.0
28/05:00pm 26.3 27.0 20.4 70 3.9 E 17 28 9 15 1012.9 - 0.0
28/04:30pm 26.5 26.9 19.9 67 4.3 E 17 24 9 13 1012.7 1012.6 0.0
28/04:00pm 26.8 27.5 20.4 68 4.2 E 17 24 9 13 1012.6 - 0.0
28/03:30pm 27.5 28.0 20.1 64 4.8 E 17 28 9 15 1012.8 1012.7 0.0
28/03:00pm 27.8 28.0 20.1 63 5.0 ENE 19 32 10 17 1013.1 1013.0 0.0
28/02:30pm 26.9 27.5 19.5 64 4.8 ENE 15 24 8 13 1013.5 1013.4 0.0
28/02:00pm 27.4 26.9 19.2 61 5.3 E 20 30 11 16 1014.0 - 0.0
28/01:30pm 27.9 27.5 19.4 60 5.5 E 20 32 11 17 1014.4 1014.3 0.0
28/01:00pm 27.8 27.7 19.6 61 5.3 E 19 26 10 14 1014.9 - 0.0
28/12:30pm 29.0 27.8 18.4 52 6.8 E 22 32 12 17 1015.4 1015.3 0.0
28/12:00pm 27.4 25.9 17.6 55 6.2 E 22 30 12 16 1016.0 1015.9 0.0
28/11:30am 27.9 26.3 18.3 56 6.1 E 24 32 13 17 1016.5 1016.4 0.0
28/11:00am 27.0 25.2 17.8 57 5.8 E 24 32 13 17 1016.8 - 0.0
28/10:30am 26.3 25.0 18.2 61 5.1 E 22 33 12 18 1017.0 1016.9 0.0
28/10:00am 25.3 24.0 18.2 64 4.5 ESE 22 33 12 18 1017.1 - 0.0
28/09:30am 25.0 23.6 18.7 68 4.0 ESE 24 33 13 18 1017.1 1017.0 0.0
28/09:00am 24.4 23.4 18.8 71 3.6 ESE 22 32 12 17 1017.0 1016.9 0.0
28/08:30am 23.9 23.3 18.8 73 3.2 ESE 20 28 11 15 1016.8 1016.7 0.0
28/08:00am 23.3 23.0 19.2 78 2.6 ESE 19 28 10 15 1016.7 - 0.0
28/07:30am 22.8 22.6 19.4 81 2.2 ESE 19 28 10 15 1016.5 1016.4 0.0
28/07:00am 22.7 21.9 19.3 81 2.2 ESE 22 30 12 16 1016.0 - 0.0
28/06:30am 23.0 22.3 19.4 80 2.3 ESE 22 32 12 17 1015.8 1015.7 0.0
28/06:00am 22.9 22.5 19.3 80 2.3 ESE 20 30 11 16 1015.5 1015.4 0.0
28/05:30am 22.9 23.6 19.7 82 2.1 ESE 15 20 8 11 1015.2 1015.1 0.0
28/05:00am 22.7 24.1 19.5 82 2.0 ESE 11 17 6 9 1015.1 - 0.0
28/04:30am 22.8 24.1 19.4 81 2.2 ESE 11 17 6 9 1015.1 1015.0 0.0
28/04:00am 23.0 23.5 19.2 79 2.4 SE 15 22 8 12 1015.0 - 0.0
28/03:30am 23.4 23.2 19.3 78 2.6 ESE 19 28 10 15 1015.1 1015.0 0.0
28/03:00am 23.5 23.7 19.4 78 2.6 ESE 17 24 9 13 1015.4 1015.3 0.0
28/02:30am 23.9 23.4 19.2 75 3.0 ESE 20 32 11 17 1015.6 1015.5 0.0
28/02:00am 24.1 24.8 19.6 76 2.9 ESE 15 20 8 11 1015.8 - 0.0
28/01:30am 24.4 25.1 19.7 75 3.0 ESE 15 24 8 13 1016.0 1015.9 0.0
28/01:00am 24.4 26.6 21.9 86 1.7 ESE 13 19 7 10 1016.3 - 0.0
28/12:30am 24.4 27.2 22.3 88 1.4 ESE 11 15 6 8 1016.4 1016.3 0.0
28/12:00am 24.6 27.5 22.5 88 1.4 ESE 11 15 6 8 1016.3 1016.2 0.0
 
Date/Time
CST
Temp
°C
App
Temp
°C
Dew
Point
Rel
Hum
%
Delta-T
°C
Wind Press
QNH
hPa
Press
MSL
hPa
Rain
since 9 am
mm
Dir
 
Spd
km/h
Gust
km/h
Spd
kts
Gust
kts
27/11:30pm 24.7 27.6 22.4 87 1.5 E 11 15 6 8 1016.3 1016.2 0.0
27/11:00pm 24.7 27.4 22.2 86 1.7 E 11 13 6 7 1016.3 - 0.0
27/10:30pm 24.8 27.5 22.1 85 1.8 E 11 13 6 7 1016.3 1016.2 0.0
27/10:00pm 24.9 27.4 21.8 83 2.1 E 11 15 6 8 1016.1 - 0.0
27/09:30pm 25.0 28.0 21.9 83 2.1 E 9 13 5 7 1015.9 1015.8 0.0
27/09:00pm 25.0 27.9 21.7 82 2.2 E 9 15 5 8 1015.7 1015.6 0.0
27/08:30pm 24.9 27.6 21.4 81 2.3 E 9 13 5 7 1015.5 1015.4 0.0
27/08:00pm 25.0 27.5 21.1 79 2.6 E 9 15 5 8 1015.1 - 0.0
27/07:30pm 25.1 27.6 21.0 78 2.7 E 9 19 5 10 1014.8 1014.7 0.0
27/07:00pm 25.2 27.1 20.5 75 3.1 E 11 19 6 10 1014.5 - 0.0
27/06:30pm 25.4 27.1 20.2 73 3.4 E 11 15 6 8 1014.1 1014.0 0.0
27/06:00pm 26.1 27.1 19.5 67 4.3 E 13 19 7 10 1013.7 1013.6 0.0
27/05:30pm 27.2 27.8 18.5 59 5.6 E 13 22 7 12 1013.5 1013.4 0.0
27/05:00pm 27.7 28.0 17.8 54 6.3 ENE 13 24 7 13 1013.3 - 0.0
27/04:30pm 28.3 28.6 17.8 53 6.7 ENE 13 20 7 11 1013.2 1013.1 0.0
27/04:00pm 28.1 28.1 18.2 55 6.3 ENE 15 22 8 12 1013.4 - 0.0
27/03:30pm 28.3 27.4 17.8 53 6.7 ENE 19 26 10 14 1013.5 1013.4 0.0
27/03:00pm 28.6 28.4 18.4 54 6.5 E 17 26 9 14 1013.7 1013.6 0.0
27/02:30pm 28.4 27.5 18.2 54 6.5 E 20 32 11 17 1013.9 1013.8 0.0
27/02:00pm 28.4 27.2 18.5 55 6.3 E 22 30 12 16 1014.5 - 0.0
27/01:30pm 28.1 26.7 17.9 54 6.5 E 22 33 12 18 1015.2 1015.1 0.0
27/01:00pm 28.2 27.7 18.6 56 6.2 E 19 28 10 15 1015.6 - 0.0
27/12:30pm 27.8 27.6 19.3 60 5.5 E 19 28 10 15 1016.2 1016.1 0.0
27/12:00pm 27.2 26.7 19.0 61 5.3 E 20 30 11 16 1016.8 1016.7 0.0
27/11:30am 27.2 27.4 19.3 62 5.1 E 17 28 9 15 1017.1 1017.0 0.0
27/11:00am 27.1 26.2 18.1 58 5.7 E 20 30 11 16 1017.6 - 0.0
27/10:30am 26.6 25.1 17.7 58 5.6 ESE 22 32 12 17 1017.9 1017.8 0.0
27/10:00am 26.2 24.3 17.6 59 5.4 E 24 32 13 17 1017.9 - 0.0
27/09:30am 25.8 24.9 18.2 63 4.8 E 20 30 11 16 1017.9 1017.8 0.0
27/09:00am 25.0 23.6 18.0 65 4.4 ESE 22 30 12 16 1017.7 1017.6 0.0
27/08:30am 24.9 24.4 18.6 68 4.0 ESE 19 26 10 14 1017.5 1017.4 0.0
27/08:00am 24.0 23.8 18.4 71 3.5 ESE 17 24 9 13 1017.1 - 0.0
27/07:30am 23.3 23.2 18.8 76 2.8 ESE 17 22 9 12 1017.1 1017.0 0.0
27/07:00am 22.7 23.1 18.9 79 2.4 ESE 15 22 8 12 1016.7 - 0.0
27/06:30am 22.6 23.3 18.8 79 2.4 ESE 13 20 7 11 1016.5 1016.4 0.0
27/06:00am 22.6 23.2 18.6 78 2.5 SE 13 17 7 9 1016.1 1016.0 0.0
27/05:30am 22.8 23.0 18.6 77 2.6 ESE 15 24 8 13 1016.0 1015.9 0.0
27/05:00am 22.9 23.0 18.4 76 2.8 SE 15 22 8 12 1016.0 - 0.0
27/04:30am 23.2 22.5 18.3 74 3.1 ESE 19 28 10 15 1015.7 1015.6 0.0
27/04:00am 23.2 23.2 18.1 73 3.2 ESE 15 22 8 12 1015.8 - 0.0
27/03:30am 23.3 23.3 18.2 73 3.2 ESE 15 22 8 12 1015.8 1015.7 0.0
27/03:00am 23.6 22.9 18.3 72 3.3 ESE 19 32 10 17 1016.0 1015.9 0.0
27/02:30am 23.7 23.5 18.4 72 3.3 SE 17 26 9 14 1016.3 1016.2 0.0
27/02:00am 23.9 24.4 19.2 75 3.0 SE 15 22 8 12 1016.6 - 0.0
27/01:30am 24.1 25.2 19.6 76 2.9 SE 13 20 7 11 1016.9 1016.8 0.0
27/01:00am 24.6 25.0 19.9 75 3.0 ESE 17 22 9 12 1017.0 - 0.0
27/12:30am 24.6 25.0 20.7 79 2.5 ESE 19 26 10 14 1017.2 1017.1 0.0
27/12:00am 24.7 25.1 21.0 80 2.4 ESE 20 28 11 15 1017.4 1017.3 0.0
 
Date/Time
CST
Temp
°C
App
Temp
°C
Dew
Point
Rel
Hum
%
Delta-T
°C
Wind Press
QNH
hPa
Press
MSL
hPa
Rain
since 9 am
mm
Dir
 
Spd
km/h
Gust
km/h
Spd
kts
Gust
kts
26/11:30pm 24.8 25.4 21.3 81 2.3 E 20 28 11 15 1017.4 1017.3 0.0
26/11:00pm 25.1 25.1 21.0 78 2.7 E 22 30 12 16 1017.5 - 0.0
26/10:30pm 25.3 24.8 21.4 79 2.6 E 26 35 14 19 1017.7 1017.6 0.0
26/10:00pm 25.1 25.7 21.4 80 2.4 E 20 30 11 16 1017.6 - 0.0
26/09:30pm 25.1 26.2 22.0 83 2.1 E 19 26 10 14 1017.5 1017.4 0.0
26/09:00pm 25.2 26.1 21.9 82 2.2 E 20 30 11 16 1017.4 1017.3 0.0
26/08:30pm 25.1 26.9 21.8 82 2.2 E 15 28 8 15 1017.2 1017.1 0.0
26/08:00pm 25.0 26.5 21.3 80 2.4 E 15 22 8 12 1016.9 - 0.0
26/07:30pm 25.0 27.2 21.1 79 2.6 E 11 20 6 11 1016.6 1016.5 0.0
26/07:00pm 24.9 26.7 20.4 76 2.9 ENE 11 20 6 11 1016.2 - 0.0
26/06:30pm 25.1 27.2 20.1 74 3.2 ENE 9 19 5 10 1015.7 1015.6 0.0
26/06:00pm 25.7 27.9 19.6 69 3.9 NE 7 17 4 9 1015.5 1015.4 0.0
26/05:30pm 26.6 28.2 19.2 64 4.8 ENE 9 19 5 10 1015.3 1015.2 0.0
26/05:00pm 27.3 28.1 19.1 61 5.3 ENE 13 22 7 12 1015.1 - 0.0
26/04:30pm 27.0 27.3 18.8 60 5.3 ENE 15 26 8 14 1015.2 1015.1 0.0

Other Formats:

Comma delimited format used in spreadsheet applications
http://www.bom.gov.au/fwo/IDD60801/IDD60801.94139.axf

JavaScript Object Notation format (JSON) in row-major order
http://www.bom.gov.au/fwo/IDD60801/IDD60801.94139.json